createdAt,value
2022-08-26T00:00:10.973Z,19.70
2022-08-26T00:02:45.519Z,19.70
2022-08-26T00:05:15.182Z,19.70
2022-08-26T00:07:47.887Z,19.60
2022-08-26T00:10:17.479Z,19.60
2022-08-26T00:12:51.858Z,19.60
2022-08-26T00:15:23.544Z,19.60
2022-08-26T00:17:54.040Z,19.60
2022-08-26T00:20:26.661Z,19.60
2022-08-26T00:23:05.322Z,19.60
2022-08-26T00:25:37.703Z,19.60
2022-08-26T00:28:17.339Z,19.60
2022-08-26T00:30:52.265Z,19.60
2022-08-26T00:33:23.060Z,19.60
2022-08-26T00:35:57.112Z,19.60
2022-08-26T00:38:26.926Z,19.60
2022-08-26T00:41:06.026Z,19.50
2022-08-26T00:43:47.445Z,19.50
2022-08-26T00:46:19.467Z,19.40
2022-08-26T00:49:03.457Z,19.40
2022-08-26T00:51:30.882Z,19.40
2022-08-26T00:54:12.546Z,19.50
2022-08-26T00:57:20.412Z,19.40
2022-08-26T00:59:56.942Z,19.40
2022-08-26T01:02:27.915Z,19.40
2022-08-26T01:05:12.006Z,19.40
2022-08-26T01:07:50.665Z,19.40
2022-08-26T01:10:25.280Z,19.30
2022-08-26T01:13:01.737Z,19.30
2022-08-26T01:15:34.186Z,19.20
2022-08-26T01:18:08.984Z,19.20
2022-08-26T01:20:57.920Z,19.20
2022-08-26T01:23:38.536Z,19.20
2022-08-26T01:26:23.727Z,19.20
2022-08-26T01:28:57.300Z,19.20
2022-08-26T01:31:36.776Z,19.20
2022-08-26T01:37:27.792Z,19.10
2022-08-26T01:39:55.739Z,19.10
2022-08-26T01:42:25.022Z,19.10
2022-08-26T01:45:18.359Z,19.00
2022-08-26T01:47:47.553Z,19.00
2022-08-26T01:50:27.783Z,19.00
2022-08-26T01:52:55.191Z,18.90
2022-08-26T01:55:32.891Z,19.00
2022-08-26T01:58:00.121Z,19.00
2022-08-26T02:00:27.282Z,19.00
2022-08-26T02:03:15.388Z,19.00
2022-08-26T02:05:46.190Z,19.10
2022-08-26T02:08:15.603Z,19.10
2022-08-26T02:10:51.266Z,19.10
2022-08-26T02:13:21.773Z,19.00
2022-08-26T02:15:49.353Z,19.00
2022-08-26T02:18:16.563Z,18.90
2022-08-26T02:20:43.300Z,18.90
2022-08-26T02:23:10.104Z,18.80
2022-08-26T02:25:55.823Z,18.80
2022-08-26T02:28:22.553Z,18.70
2022-08-26T02:30:55.549Z,18.70
2022-08-26T02:33:22.491Z,18.60
2022-08-26T02:35:49.251Z,18.60
2022-08-26T02:38:15.988Z,18.60
2022-08-26T02:40:44.027Z,18.60
2022-08-26T02:43:12.557Z,18.50
2022-08-26T02:45:40.267Z,18.50
2022-08-26T02:48:18.873Z,18.50
2022-08-26T02:50:45.743Z,18.50
2022-08-26T02:53:12.614Z,18.50
2022-08-26T02:55:41.742Z,18.50
2022-08-26T02:58:09.591Z,18.40
2022-08-26T03:00:37.874Z,18.40
2022-08-26T03:03:05.469Z,18.40
2022-08-26T03:05:32.219Z,18.40
2022-08-26T03:08:00.240Z,18.30
2022-08-26T03:10:27.286Z,18.40
2022-08-26T03:12:54.075Z,18.30
2022-08-26T03:15:21.128Z,18.30
2022-08-26T03:17:48.199Z,18.30
2022-08-26T03:20:17.451Z,18.30
2022-08-26T03:22:44.853Z,18.30
2022-08-26T03:25:13.231Z,18.30
2022-08-26T03:27:41.528Z,18.40
2022-08-26T03:30:36.486Z,18.30
2022-08-26T03:33:03.278Z,18.30
2022-08-26T03:35:31.923Z,18.30
2022-08-26T03:37:59.078Z,18.20
2022-08-26T03:40:25.960Z,18.20
2022-08-26T03:42:55.978Z,18.30
2022-08-26T03:45:22.708Z,18.30
2022-08-26T03:47:49.444Z,18.20
2022-08-26T03:50:22.539Z,18.10
2022-08-26T03:52:50.780Z,18.10
2022-08-26T03:55:17.853Z,18.10
2022-08-26T03:57:44.571Z,18.20
2022-08-26T04:00:15.268Z,18.20
2022-08-26T04:02:46.153Z,18.20
2022-08-26T04:05:17.842Z,18.20
2022-08-26T04:07:46.568Z,18.20
2022-08-26T04:10:20.106Z,18.20
2022-08-26T04:12:47.310Z,18.10
2022-08-26T04:15:15.814Z,18.10
2022-08-26T04:17:42.640Z,18.10
2022-08-26T04:20:09.869Z,18.10
2022-08-26T04:22:36.608Z,18.20
2022-08-26T04:25:03.518Z,18.20
2022-08-26T04:27:33.721Z,18.20
2022-08-26T04:30:00.599Z,18.30
2022-08-26T04:32:27.582Z,18.50
2022-08-26T04:34:54.307Z,18.60
2022-08-26T04:37:21.967Z,18.70
2022-08-26T04:39:53.186Z,18.90
2022-08-26T04:42:25.899Z,19.10
2022-08-26T04:44:53.183Z,19.30
2022-08-26T04:47:19.948Z,19.50
2022-08-26T04:49:46.688Z,19.70
2022-08-26T04:52:13.504Z,19.90
2022-08-26T04:54:42.018Z,20.10
2022-08-26T04:57:08.878Z,20.30
2022-08-26T04:59:39.048Z,20.60
2022-08-26T05:02:06.931Z,20.80
2022-08-26T05:04:33.992Z,21.10
2022-08-26T05:07:02.668Z,21.30
2022-08-26T05:09:29.895Z,21.50
2022-08-26T05:11:57.311Z,21.70
2022-08-26T05:14:24.128Z,21.90
2022-08-26T05:16:51.277Z,22.20
2022-08-26T05:19:18.718Z,22.50
2022-08-26T05:21:46.345Z,22.80
2022-08-26T05:24:15.580Z,23.10
2022-08-26T05:26:42.358Z,23.50
2022-08-26T05:29:12.207Z,23.90
2022-08-26T05:31:39.110Z,24.20
2022-08-26T05:34:06.005Z,24.50
2022-08-26T05:36:34.925Z,24.80
2022-08-26T05:39:03.095Z,25.20
2022-08-26T05:41:34.477Z,25.50
2022-08-26T05:44:05.768Z,25.90
2022-08-26T05:46:32.566Z,26.30
2022-08-26T05:48:59.664Z,26.60
2022-08-26T05:51:27.010Z,26.80
2022-08-26T05:53:57.342Z,27.10
2022-08-26T05:56:26.175Z,27.20
2022-08-26T05:58:53.291Z,27.60
2022-08-26T06:01:21.909Z,27.90
2022-08-26T06:03:54.788Z,28.20
2022-08-26T06:06:29.670Z,28.50
2022-08-26T06:08:59.100Z,28.70
2022-08-26T06:11:26.778Z,29.00
2022-08-26T06:13:54.336Z,29.30
2022-08-26T06:16:23.454Z,29.50
2022-08-26T06:18:51.467Z,29.60
2022-08-26T06:21:39.077Z,29.30
2022-08-26T06:24:27.093Z,29.20
2022-08-26T06:27:01.910Z,29.20
2022-08-26T06:29:30.138Z,29.30
2022-08-26T06:31:57.061Z,29.40
2022-08-26T06:34:29.820Z,29.40
2022-08-26T06:36:58.689Z,29.40
2022-08-26T06:39:25.541Z,29.50
2022-08-26T06:41:52.487Z,29.60
2022-08-26T06:44:19.496Z,29.60
2022-08-26T06:46:50.266Z,29.70
2022-08-26T06:49:17.780Z,30.00
2022-08-26T06:51:44.555Z,30.20
2022-08-26T06:54:11.581Z,30.10
2022-08-26T06:56:40.745Z,30.10
2022-08-26T06:59:08.336Z,30.40
2022-08-26T07:01:37.983Z,30.60
2022-08-26T07:04:07.932Z,30.90
2022-08-26T07:06:39.120Z,31.20
2022-08-26T07:09:07.369Z,31.60
2022-08-26T07:11:37.503Z,31.80
2022-08-26T07:14:04.995Z,32.20
2022-08-26T07:16:31.882Z,32.40
2022-08-26T07:18:59.835Z,32.60
2022-08-26T07:21:30.115Z,32.80
2022-08-26T07:24:01.305Z,32.80
2022-08-26T07:26:29.206Z,33.00
2022-08-26T07:28:56.456Z,33.20
2022-08-26T07:31:25.233Z,33.50
2022-08-26T07:33:52.173Z,33.80
2022-08-26T07:36:19.567Z,34.10
2022-08-26T07:38:48.083Z,34.20
2022-08-26T07:41:16.898Z,34.30
2022-08-26T07:43:43.860Z,34.30
2022-08-26T07:46:16.305Z,34.40
2022-08-26T07:48:46.084Z,34.40
2022-08-26T07:51:16.696Z,34.40
2022-08-26T07:53:44.053Z,34.40
2022-08-26T07:56:14.810Z,34.50
2022-08-26T07:58:41.709Z,34.40
2022-08-26T08:01:09.452Z,34.50
2022-08-26T08:03:36.243Z,34.50
2022-08-26T08:06:03.113Z,34.40
2022-08-26T08:08:29.925Z,34.20
2022-08-26T08:10:58.408Z,34.00
2022-08-26T08:13:26.536Z,33.90
2022-08-26T08:15:53.476Z,33.60
2022-08-26T08:18:20.724Z,33.40
2022-08-26T08:20:59.208Z,33.00
2022-08-26T08:23:32.327Z,32.90
2022-08-26T08:26:09.171Z,32.80
2022-08-26T08:28:39.078Z,32.70
2022-08-26T08:31:06.002Z,32.70
2022-08-26T08:33:33.713Z,32.60
2022-08-26T08:36:00.523Z,32.40
2022-08-26T08:38:27.529Z,32.40
2022-08-26T08:40:54.422Z,32.40
2022-08-26T08:43:39.819Z,32.50
2022-08-26T08:46:12.247Z,32.60
2022-08-26T08:48:43.420Z,32.80
2022-08-26T08:51:22.230Z,32.90
2022-08-26T08:53:49.655Z,32.70
2022-08-26T08:56:31.437Z,32.70
2022-08-26T08:59:18.131Z,32.80
2022-08-26T09:02:04.750Z,33.10
2022-08-26T09:04:51.624Z,33.40
2022-08-26T09:07:36.506Z,33.50
2022-08-26T09:10:19.824Z,33.50
2022-08-26T09:12:46.703Z,33.20
2022-08-26T09:15:18.628Z,33.10
2022-08-26T09:18:11.561Z,32.80
2022-08-26T09:20:59.229Z,32.50
2022-08-26T09:23:26.261Z,32.10
2022-08-26T09:25:57.440Z,32.00
2022-08-26T09:28:25.707Z,31.70
2022-08-26T09:31:20.876Z,31.50
2022-08-26T09:33:48.092Z,31.30
2022-08-26T09:36:24.766Z,31.30
2022-08-26T09:38:52.354Z,31.40
2022-08-26T09:41:20.895Z,31.60
2022-08-26T09:44:14.637Z,31.70
2022-08-26T09:46:52.255Z,31.80
2022-08-26T09:49:28.615Z,32.00
2022-08-26T09:52:08.725Z,32.10
2022-08-26T09:54:36.660Z,32.30
2022-08-26T09:57:28.919Z,32.40
2022-08-26T09:59:56.033Z,32.60
2022-08-26T10:02:34.763Z,33.00
2022-08-26T10:05:09.008Z,33.30
2022-08-26T10:07:50.538Z,33.80
2022-08-26T10:10:39.241Z,34.00
2022-08-26T10:13:24.443Z,34.00
2022-08-26T10:16:14.742Z,34.00
2022-08-26T10:19:04.162Z,33.90
2022-08-26T10:21:44.657Z,33.80
2022-08-26T10:24:12.434Z,33.80
2022-08-26T10:26:46.650Z,33.70
2022-08-26T10:29:20.379Z,33.70
2022-08-26T10:31:53.919Z,33.50
2022-08-26T10:34:25.711Z,33.40
2022-08-26T10:37:15.801Z,33.50
2022-08-26T10:40:02.048Z,33.40
2022-08-26T10:42:47.948Z,33.40
2022-08-26T10:45:17.011Z,33.50
2022-08-26T10:47:54.404Z,33.50
2022-08-26T10:50:23.222Z,33.70
2022-08-26T10:52:53.276Z,33.50
2022-08-26T10:56:03.694Z,33.10
2022-08-26T10:58:56.185Z,33.10
2022-08-26T11:01:42.917Z,33.00
2022-08-26T11:04:38.380Z,32.90
2022-08-26T11:07:31.791Z,32.90
2022-08-26T11:10:00.376Z,32.80
2022-08-26T11:12:36.344Z,32.70
2022-08-26T11:15:10.906Z,32.60
2022-08-26T11:17:45.913Z,32.50
2022-08-26T11:20:45.086Z,32.20
2022-08-26T11:23:12.808Z,32.00
2022-08-26T11:26:01.487Z,31.80
2022-08-26T11:28:37.690Z,31.70
2022-08-26T11:31:05.855Z,31.70
2022-08-26T11:33:52.218Z,31.90
2022-08-26T11:36:56.175Z,32.00
2022-08-26T11:39:31.170Z,32.10
2022-08-26T11:42:22.199Z,32.30
2022-08-26T11:44:50.084Z,32.40
2022-08-26T11:47:24.959Z,32.60
2022-08-26T11:50:05.414Z,32.70
2022-08-26T11:52:32.462Z,32.70
2022-08-26T11:55:02.628Z,32.60
2022-08-26T11:57:29.870Z,32.60
2022-08-26T11:59:56.747Z,32.60
2022-08-26T12:02:23.525Z,32.40
2022-08-26T12:04:51.048Z,32.40
2022-08-26T12:07:23.807Z,32.10
2022-08-26T12:10:02.313Z,32.00
2022-08-26T12:12:35.262Z,32.00
2022-08-26T12:15:10.111Z,32.10
2022-08-26T12:17:37.180Z,32.30
2022-08-26T12:20:06.336Z,32.60
2022-08-26T12:22:38.294Z,32.60
2022-08-26T12:25:07.413Z,32.50
2022-08-26T12:27:41.867Z,32.30
2022-08-26T12:30:17.937Z,32.30
2022-08-26T12:32:50.984Z,32.40
2022-08-26T12:35:24.465Z,32.50
2022-08-26T12:37:52.373Z,32.50
2022-08-26T12:40:31.307Z,32.60
2022-08-26T12:43:00.419Z,32.80
2022-08-26T12:45:44.198Z,33.00
2022-08-26T12:48:24.557Z,33.10
2022-08-26T12:50:52.024Z,33.20
2022-08-26T12:53:45.648Z,33.10
2022-08-26T12:56:25.077Z,33.10
2022-08-26T12:59:25.035Z,33.00
2022-08-26T13:01:52.176Z,32.90
2022-08-26T13:04:46.870Z,32.70
2022-08-26T13:07:20.843Z,32.60
2022-08-26T13:09:47.879Z,32.50
2022-08-26T13:12:26.144Z,32.30
2022-08-26T13:14:53.942Z,32.20
2022-08-26T13:17:21.119Z,32.20
2022-08-26T13:19:47.872Z,32.20
2022-08-26T13:22:22.944Z,32.20
2022-08-26T13:24:50.593Z,32.10
2022-08-26T13:27:33.327Z,31.90
2022-08-26T13:32:59.968Z,31.70
2022-08-26T13:35:28.989Z,31.80
2022-08-26T13:37:55.736Z,31.80
2022-08-26T13:40:22.620Z,31.80
2022-08-26T13:42:50.142Z,31.90
2022-08-26T13:45:17.144Z,31.70
2022-08-26T13:47:44.613Z,31.70
2022-08-26T13:50:11.393Z,31.60
2022-08-26T13:52:38.215Z,31.60
2022-08-26T13:55:06.682Z,31.60
2022-08-26T13:57:33.537Z,31.60
2022-08-26T14:00:00.365Z,31.60
2022-08-26T14:02:27.612Z,31.50
2022-08-26T14:04:55.292Z,31.50
2022-08-26T14:07:22.679Z,31.60
2022-08-26T14:09:49.498Z,31.60
2022-08-26T14:12:16.692Z,31.70
2022-08-26T14:14:43.588Z,31.70
2022-08-26T14:17:18.837Z,31.80
2022-08-26T14:19:46.347Z,31.90
2022-08-26T14:22:14.596Z,31.90
2022-08-26T14:24:41.334Z,32.00
2022-08-26T14:27:08.057Z,32.00
2022-08-26T14:29:34.787Z,31.90
2022-08-26T14:32:02.742Z,32.00
2022-08-26T14:34:29.504Z,32.00
2022-08-26T14:36:56.345Z,31.90
2022-08-26T14:39:23.088Z,31.80
2022-08-26T14:41:55.024Z,31.60
2022-08-26T14:44:24.327Z,31.50
2022-08-26T14:46:51.881Z,31.40
2022-08-26T14:49:19.029Z,31.40
2022-08-26T14:51:45.932Z,31.30
2022-08-26T14:54:16.238Z,31.40
2022-08-26T14:57:04.909Z,31.40
2022-08-26T14:59:36.696Z,31.50
2022-08-26T15:02:04.401Z,31.50
2022-08-26T15:04:31.249Z,31.40
2022-08-26T15:06:58.906Z,31.40
2022-08-26T15:09:26.583Z,31.40
2022-08-26T15:11:53.410Z,31.30
2022-08-26T15:14:20.846Z,31.20
2022-08-26T15:16:51.992Z,31.20
2022-08-26T15:19:18.936Z,31.10
2022-08-26T15:21:46.986Z,31.10
2022-08-26T15:24:14.713Z,30.90
2022-08-26T15:26:41.543Z,30.90
2022-08-26T15:29:08.293Z,30.80
2022-08-26T15:31:35.523Z,30.90
2022-08-26T15:34:08.033Z,30.90
2022-08-26T15:36:34.959Z,31.00
2022-08-26T15:39:01.729Z,31.10
2022-08-26T15:41:29.305Z,31.10
2022-08-26T15:43:56.641Z,31.20
2022-08-26T15:46:23.448Z,31.30
2022-08-26T15:48:50.191Z,31.30
2022-08-26T15:51:30.615Z,31.20
2022-08-26T15:53:57.569Z,31.20
2022-08-26T15:56:28.219Z,31.10
2022-08-26T15:58:56.157Z,30.90
2022-08-26T16:01:27.095Z,30.80
2022-08-26T16:03:54.622Z,30.80
2022-08-26T16:06:23.645Z,30.70
2022-08-26T16:08:50.391Z,30.60
2022-08-26T16:11:19.795Z,30.60
2022-08-26T16:13:46.882Z,30.50
2022-08-26T16:16:13.749Z,30.50
2022-08-26T16:18:40.674Z,30.50
2022-08-26T16:21:13.371Z,30.50
2022-08-26T16:23:40.968Z,30.40
2022-08-26T16:26:14.491Z,30.30
2022-08-26T16:28:41.261Z,30.30
2022-08-26T16:31:10.509Z,30.30
2022-08-26T16:33:40.685Z,30.30
2022-08-26T16:36:08.184Z,30.30
2022-08-26T16:38:35.496Z,30.30
2022-08-26T16:41:02.365Z,30.30
2022-08-26T16:43:29.093Z,30.20
2022-08-26T16:45:56.219Z,30.10
2022-08-26T16:48:23.728Z,30.10
2022-08-26T16:50:51.387Z,30.00
2022-08-26T16:53:18.993Z,29.90
2022-08-26T16:55:47.022Z,29.90
2022-08-26T16:58:14.642Z,29.80
2022-08-26T17:00:41.423Z,29.80
2022-08-26T17:03:08.246Z,29.70
2022-08-26T17:05:35.303Z,29.70
2022-08-26T17:08:02.175Z,29.60
2022-08-26T17:10:29.507Z,29.60
2022-08-26T17:12:56.458Z,29.60
2022-08-26T17:15:26.028Z,29.60
2022-08-26T17:17:53.163Z,29.60
2022-08-26T17:20:20.051Z,29.50
2022-08-26T17:22:47.629Z,29.60
2022-08-26T17:25:17.029Z,29.50
2022-08-26T17:27:43.823Z,29.50
2022-08-26T17:30:11.008Z,29.30
2022-08-26T17:32:37.883Z,29.20
2022-08-26T17:35:05.359Z,29.00
2022-08-26T17:37:32.171Z,28.90
2022-08-26T17:39:58.927Z,28.80
2022-08-26T17:42:31.327Z,28.70
2022-08-26T17:44:58.683Z,28.60
2022-08-26T17:47:25.431Z,28.50
2022-08-26T17:49:52.256Z,28.40
2022-08-26T17:52:19.018Z,28.30
2022-08-26T17:54:45.771Z,28.20
2022-08-26T17:57:12.499Z,28.10
2022-08-26T17:59:40.950Z,28.10
2022-08-26T18:02:07.864Z,28.00
2022-08-26T18:04:34.697Z,27.90
2022-08-26T18:07:01.504Z,27.70
2022-08-26T18:09:31.519Z,27.70
2022-08-26T18:11:58.837Z,27.70
2022-08-26T18:14:25.928Z,27.50
2022-08-26T18:16:52.777Z,27.40
2022-08-26T18:19:19.782Z,27.30
2022-08-26T18:21:46.668Z,27.20
2022-08-26T18:24:14.169Z,27.10
2022-08-26T18:26:41.434Z,27.00
2022-08-26T18:29:08.277Z,26.90
2022-08-26T18:31:35.063Z,26.80
2022-08-26T18:34:02.132Z,26.70
2022-08-26T18:36:34.688Z,26.50
2022-08-26T18:39:01.607Z,26.40
2022-08-26T18:41:29.555Z,26.30
2022-08-26T18:43:57.442Z,26.20
2022-08-26T18:46:27.761Z,26.10
2022-08-26T18:48:54.976Z,25.90
2022-08-26T18:51:24.283Z,25.80
2022-08-26T18:53:51.600Z,25.80
2022-08-26T18:56:18.832Z,25.70
2022-08-26T18:58:45.893Z,25.60
2022-08-26T19:01:13.210Z,25.60
2022-08-26T19:03:40.164Z,25.40
2022-08-26T19:06:07.139Z,25.40
2022-08-26T19:08:33.885Z,25.30
2022-08-26T19:11:00.977Z,25.30
2022-08-26T19:13:27.767Z,25.20
2022-08-26T19:15:55.312Z,25.20
2022-08-26T19:18:22.193Z,25.20
2022-08-26T19:20:49.024Z,25.20
2022-08-26T19:23:31.037Z,25.10
2022-08-26T19:25:58.617Z,25.10
2022-08-26T19:28:25.369Z,25.00
2022-08-26T19:30:53.342Z,25.00
2022-08-26T19:33:20.413Z,24.90
2022-08-26T19:35:47.203Z,24.90
2022-08-26T19:38:14.247Z,24.90
2022-08-26T19:40:42.566Z,24.80
2022-08-26T19:43:10.002Z,24.80
2022-08-26T19:45:38.941Z,24.80
2022-08-26T19:48:05.819Z,24.80
2022-08-26T19:50:33.507Z,24.80
2022-08-26T19:53:00.429Z,24.90
2022-08-26T19:55:27.425Z,24.80
2022-08-26T19:57:54.208Z,24.90
2022-08-26T20:00:23.707Z,24.90
2022-08-26T20:02:50.968Z,24.90
2022-08-26T20:05:20.372Z,24.90
2022-08-26T20:07:47.832Z,24.90
2022-08-26T20:10:15.708Z,24.90
2022-08-26T20:12:42.710Z,25.00
2022-08-26T20:15:10.657Z,25.00
2022-08-26T20:17:37.839Z,25.00
2022-08-26T20:20:32.612Z,24.90
2022-08-26T20:23:01.322Z,24.90
2022-08-26T20:25:28.160Z,24.90
2022-08-26T20:27:54.959Z,24.90
2022-08-26T20:30:21.871Z,24.90
2022-08-26T20:32:48.683Z,24.80
2022-08-26T20:35:15.766Z,24.80
2022-08-26T20:37:42.564Z,24.80
2022-08-26T20:40:11.170Z,24.80
2022-08-26T20:42:38.144Z,24.80
2022-08-26T20:45:06.534Z,24.80
2022-08-26T20:47:33.553Z,24.70
2022-08-26T20:50:00.390Z,24.80
2022-08-26T20:52:27.528Z,24.70
2022-08-26T20:54:54.268Z,24.70
2022-08-26T20:57:22.270Z,24.60
2022-08-26T20:59:49.153Z,24.60
2022-08-26T21:02:16.089Z,24.50
2022-08-26T21:04:42.847Z,24.40
2022-08-26T21:07:09.722Z,24.40
2022-08-26T21:09:36.464Z,24.40
2022-08-26T21:12:05.265Z,24.40
2022-08-26T21:14:32.108Z,24.40
2022-08-26T21:16:59.489Z,24.40
2022-08-26T21:19:26.732Z,24.40
2022-08-26T21:21:53.550Z,24.50
2022-08-26T21:24:20.376Z,24.40
2022-08-26T21:26:47.189Z,24.40
2022-08-26T21:29:14.254Z,24.40
2022-08-26T21:31:45.673Z,24.40
2022-08-26T21:34:14.684Z,24.40
2022-08-26T21:36:41.811Z,24.40
2022-08-26T21:39:11.698Z,24.40
2022-08-26T21:41:39.531Z,24.40
2022-08-26T21:44:06.681Z,24.30
2022-08-26T21:46:36.287Z,24.30
2022-08-26T21:49:05.416Z,24.30
2022-08-26T21:51:33.430Z,24.30
2022-08-26T21:54:00.559Z,24.30
2022-08-26T21:56:29.260Z,24.20
2022-08-26T21:58:56.259Z,24.20
2022-08-26T22:01:24.672Z,24.10
2022-08-26T22:03:52.628Z,24.10
2022-08-26T22:06:22.026Z,24.00
2022-08-26T22:08:48.993Z,24.00
2022-08-26T22:11:15.810Z,23.90
2022-08-26T22:13:42.836Z,23.90
2022-08-26T22:16:09.805Z,23.80
2022-08-26T22:18:36.861Z,23.80
2022-08-26T22:21:06.858Z,23.60
2022-08-26T22:23:34.968Z,23.60
2022-08-26T22:26:01.831Z,23.50
2022-08-26T22:28:28.648Z,23.50
2022-08-26T22:30:55.698Z,23.40
2022-08-26T22:33:22.920Z,23.30
2022-08-26T22:35:51.349Z,23.30
2022-08-26T22:38:18.703Z,23.20
2022-08-26T22:40:50.839Z,23.10
2022-08-26T22:43:18.454Z,23.10
2022-08-26T22:45:46.227Z,23.00
2022-08-26T22:48:15.493Z,23.00
2022-08-26T22:50:43.245Z,22.90
2022-08-26T22:53:10.085Z,22.90
2022-08-26T22:55:36.845Z,22.80
2022-08-26T22:58:04.265Z,22.80
2022-08-26T23:00:32.426Z,22.70
2022-08-26T23:02:59.809Z,22.70
2022-08-26T23:05:26.634Z,22.60
2022-08-26T23:07:54.025Z,22.60
2022-08-26T23:10:21.146Z,22.60
2022-08-26T23:12:47.892Z,22.60
2022-08-26T23:15:14.961Z,22.60
2022-08-26T23:17:43.144Z,22.60
2022-08-26T23:20:11.532Z,22.60
2022-08-26T23:22:38.320Z,22.60
2022-08-26T23:25:07.664Z,22.50
2022-08-26T23:27:38.808Z,22.60
2022-08-26T23:30:07.842Z,22.50
2022-08-26T23:32:34.574Z,22.60
2022-08-26T23:35:01.423Z,22.60
2022-08-26T23:37:33.724Z,22.50
2022-08-26T23:40:05.023Z,22.40
2022-08-26T23:42:31.836Z,22.40
2022-08-26T23:44:58.551Z,22.30
2022-08-26T23:47:25.309Z,22.30
2022-08-26T23:49:52.091Z,22.20
2022-08-26T23:52:37.568Z,22.20
2022-08-26T23:55:04.862Z,22.20
2022-08-26T23:57:31.603Z,22.10
2022-08-26T23:59:58.660Z,22.10
